Nearby METAR Reports

 

EGQS - Lossiemouth Raf, United Kingdom
Distance from station: NW 60mi, 97km
Updated: 25/10/2020 20:50
Mostly cloudy
Mostly cloudy
 Wind from S
Wind: S 13 mph , 20 km/h
Temperature: 8°C
Wind Chill: 4°C
Dew Point: 5°C
Humidity: 82%
Barometer: 981 hPa
Clouds: Mostly cloudy
Visibility: 6 miles , 10 km
Cloud details: Few Clouds 1219 m
Mostly cloudy 6096 m
2020/10/25 20:50 EGQS 252050Z 19011KT 9999 FEW040 BKN200 08/05 Q0981 RMK BLU